Time;durP1;ratioP1;P1;durP2;ratioP2;P2;SDS_P1;SDS_P2;PMS_P1;PMS_P2;Temp;Humidity;BMP_temperature;BMP_pressure;BME280_temperature;BME280_humidity;BME280_pressure;Samples;Min_cycle;Max_cycle;Signal;HPM_P1;HPM_P2
2021/10/30 00:00:41;;;;;;;15.90;10.18;;;8.30;90.30;;;;;;5120640;28;20233;-66
2021/10/30 00:03:08;;;;;;;19.77;10.55;;;8.30;90.40;;;;;;5132940;27;20199;-66
2021/10/30 00:05:35;;;;;;;14.70;8.70;;;8.30;90.30;;;;;;5125959;27;20234;-66
2021/10/30 00:08:02;;;;;;;11.55;9.80;;;8.30;90.70;;;;;;5112325;28;20181;-66
2021/10/30 00:10:30;;;;;;;10.93;9.57;;;8.30;90.50;;;;;;5117702;28;20184;-66
2021/10/30 00:12:58;;;;;;;14.27;10.00;;;8.30;90.60;;;;;;5133127;27;20192;-65
2021/10/30 00:15:27;;;;;;;11.65;9.23;;;8.30;90.40;;;;;;5128049;27;20603;-65
2021/10/30 00:17:54;;;;;;;19.70;9.68;;;8.30;90.50;;;;;;5112559;28;20189;-66
2021/10/30 00:20:21;;;;;;;33.85;10.48;;;8.40;90.70;;;;;;5115525;28;20616;-67
2021/10/30 00:22:48;;;;;;;26.23;10.05;;;8.30;90.10;;;;;;5133382;27;20198;-66
2021/10/30 00:25:16;;;;;;;12.07;8.93;;;8.30;90.10;;;;;;5130455;27;20234;-66
2021/10/30 00:27:43;;;;;;;11.38;9.57;;;8.30;90.40;;;;;;5112523;28;20200;-66
2021/10/30 00:30:11;;;;;;;18.48;10.57;;;8.20;90.20;;;;;;5112707;28;20238;-66
2021/10/30 00:32:39;;;;;;;18.85;9.98;;;8.20;90.10;;;;;;5132928;27;20248;-67
2021/10/30 00:35:08;;;;;;;9.40;8.38;;;8.20;90.10;;;;;;5132685;27;20200;-66
2021/10/30 00:37:35;;;;;;;26.73;10.45;;;8.20;90.20;;;;;;5112204;27;20268;-66
2021/10/30 00:40:02;;;;;;;18.77;10.25;;;8.20;90.10;;;;;;5111938;28;20221;-67
2021/10/30 00:42:30;;;;;;;18.52;10.75;;;8.10;90.20;;;;;;5130976;28;20192;-66
2021/10/30 00:44:57;;;;;;;19.25;9.25;;;8.10;90.40;;;;;;5133075;27;20719;-66
2021/10/30 00:47:24;;;;;;;24.77;9.40;;;8.00;90.60;;;;;;5114460;27;20200;-64
2021/10/30 00:49:52;;;;;;;15.63;10.88;;;7.90;91.00;;;;;;5112045;28;20278;-65
2021/10/30 00:52:22;;;;;;;20.65;10.10;;;7.90;91.20;;;;;;5128663;28;20497;-65
2021/10/30 00:54:50;;;;;;;23.85;9.93;;;7.80;91.40;;;;;;5131979;27;20200;-66
2021/10/30 00:57:19;;;;;;;10.05;8.00;;;7.80;91.60;;;;;;5112129;28;20265;-65
2021/10/30 00:59:48;;;;;;;24.48;8.90;;;7.80;91.60;;;;;;5112037;28;20217;-65
2021/10/30 01:02:16;;;;;;;38.75;10.25;;;7.80;91.40;;;;;;5131784;28;20225;-65
2021/10/30 01:04:43;;;;;;;14.85;8.82;;;7.70;91.30;;;;;;5132560;27;20245;-65
2021/10/30 01:07:11;;;;;;;11.70;9.05;;;7.70;91.60;;;;;;5113074;27;20185;-66
2021/10/30 01:09:39;;;;;;;20.73;10.05;;;7.70;91.40;;;;;;5113043;27;20611;-66
2021/10/30 01:12:07;;;;;;;19.48;9.57;;;7.80;91.40;;;;;;5129717;28;20585;-66
2021/10/30 01:14:35;;;;;;;22.13;9.15;;;7.80;91.40;;;;;;5133855;27;20244;-66
2021/10/30 01:17:04;;;;;;;10.15;8.80;;;7.80;91.30;;;;;;5118782;27;20263;-66
2021/10/30 01:19:32;;;;;;;10.93;8.00;;;7.80;91.40;;;;;;5115540;28;20218;-67
2021/10/30 01:22:01;;;;;;;11.02;7.65;;;7.70;91.50;;;;;;5131160;27;20574;-66
2021/10/30 01:24:29;;;;;;;17.08;9.15;;;7.70;91.80;;;;;;5136094;27;20587;-66
2021/10/30 01:26:56;;;;;;;10.77;7.95;;;7.70;90.90;;;;;;5121042;27;20184;-66
2021/10/30 01:29:23;;;;;;;17.70;9.27;;;7.50;91.40;;;;;;5115428;28;20272;-66
2021/10/30 01:31:51;;;;;;;11.38;8.75;;;7.40;92.10;;;;;;5128646;27;20184;-66
2021/10/30 01:34:19;;;;;;;22.15;8.07;;;7.40;93.00;;;;;;5136053;27;20211;-66
2021/10/30 01:36:46;;;;;;;26.23;8.65;;;7.30;92.30;;;;;;5133872;27;20542;-66
2021/10/30 01:39:16;;;;;;;17.73;8.85;;;7.30;92.20;;;;;;5135780;27;20216;-66
2021/10/30 01:41:44;;;;;;;21.75;8.60;;;7.20;92.10;;;;;;5121896;27;20562;-66
2021/10/30 01:44:11;;;;;;;18.65;8.40;;;7.20;91.80;;;;;;5115102;28;20192;-65
2021/10/30 01:46:38;;;;;;;15.93;8.50;;;7.10;91.40;;;;;;5126854;27;20245;-66
2021/10/30 01:49:06;;;;;;;14.38;9.40;;;7.10;92.20;;;;;;5135610;27;20192;-66
2021/10/30 01:51:33;;;;;;;10.55;6.80;;;7.00;92.10;;;;;;5124497;27;20237;-66
2021/10/30 01:54:01;;;;;;;37.85;12.20;;;6.90;92.10;;;;;;5114980;28;20196;-65
2021/10/30 01:56:30;;;;;;;18.73;8.27;;;6.90;91.60;;;;;;5123941;27;20220;-66
2021/10/30 01:58:57;;;;;;;11.38;7.70;;;6.70;91.50;;;;;;5135336;27;20247;-66
2021/10/30 02:01:24;;;;;;;10.60;7.80;;;6.60;92.10;;;;;;5126523;27;20189;-65
2021/10/30 02:03:52;;;;;;;8.27;6.95;;;6.60;92.70;;;;;;5114897;28;20192;-66
2021/10/30 02:06:19;;;;;;;7.60;6.47;;;6.60;92.50;;;;;;5121631;27;20184;-66
2021/10/30 02:08:46;;;;;;;7.65;6.88;;;6.70;91.80;;;;;;5135179;27;20697;-66
2021/10/30 02:11:13;;;;;;;13.10;7.28;;;6.70;91.90;;;;;;5129043;27;20200;-66
2021/10/30 02:13:42;;;;;;;11.88;6.20;;;6.70;91.80;;;;;;5114570;28;20193;-65
2021/10/30 02:16:13;;;;;;;13.88;7.07;;;6.70;91.90;;;;;;5115161;27;20181;-66
2021/10/30 02:18:40;;;;;;;7.07;6.38;;;6.70;91.90;;;;;;5103066;28;20195;-66
2021/10/30 02:21:07;;;;;;;7.88;6.40;;;6.70;91.50;;;;;;5114495;28;20185;-66
2021/10/30 02:23:34;;;;;;;10.45;6.65;;;6.70;91.30;;;;;;5114496;27;20236;-66
2021/10/30 02:26:03;;;;;;;9.75;7.57;;;6.80;91.40;;;;;;5114085;28;20316;-66
2021/10/30 02:28:30;;;;;;;8.55;6.30;;;6.80;91.20;;;;;;5126756;27;20272;-66
2021/10/30 02:30:58;;;;;;;7.57;6.78;;;6.90;90.80;;;;;;5114106;28;20193;-67
2021/10/30 02:33:26;;;;;;;8.10;6.57;;;6.90;90.70;;;;;;5114211;28;20198;-66
2021/10/30 02:35:53;;;;;;;25.55;7.78;;;6.90;90.80;;;;;;5131780;27;20586;-66
2021/10/30 02:38:20;;;;;;;13.38;5.88;;;6.90;90.10;;;;;;5127835;27;20214;-66
2021/10/30 02:40:47;;;;;;;6.60;5.90;;;6.80;89.80;;;;;;5113866;28;20315;-66
2021/10/30 02:43:14;;;;;;;10.68;6.30;;;6.80;89.60;;;;;;5129076;27;20196;-66
2021/10/30 02:45:41;;;;;;;10.40;6.65;;;6.70;89.90;;;;;;5134213;27;20664;-66
2021/10/30 02:48:10;;;;;;;8.38;7.38;;;6.70;88.80;;;;;;5119925;27;20242;-66
2021/10/30 02:50:37;;;;;;;27.05;7.10;;;6.70;88.60;;;;;;5113763;28;20570;-66
2021/10/30 02:53:04;;;;;;;11.15;6.00;;;6.60;89.40;;;;;;5126476;27;20582;-66
2021/10/30 02:55:31;;;;;;;11.60;6.10;;;6.50;88.20;;;;;;5134225;27;20555;-66
2021/10/30 02:57:59;;;;;;;13.45;7.22;;;6.50;89.30;;;;;;5122119;27;20223;-66
2021/10/30 03:00:26;;;;;;;6.07;5.22;;;6.30;88.20;;;;;;5113576;28;20616;-67
2021/10/30 03:02:53;;;;;;;8.73;6.70;;;6.30;89.00;;;;;;5123483;27;20233;-66
2021/10/30 03:05:22;;;;;;;6.38;5.53;;;6.20;88.30;;;;;;5134047;27;20188;-66
2021/10/30 03:07:49;;;;;;;9.50;6.00;;;6.20;89.80;;;;;;5124888;27;20242;-66
2021/10/30 03:10:16;;;;;;;10.98;5.90;;;6.20;88.60;;;;;;5113362;28;20215;-66
2021/10/30 03:12:45;;;;;;;11.32;6.95;;;6.10;89.70;;;;;;5120578;27;20185;-66
2021/10/30 03:15:12;;;;;;;23.95;7.82;;;6.10;89.20;;;;;;5134057;27;20184;-65
2021/10/30 03:17:39;;;;;;;12.75;6.65;;;6.10;89.80;;;;;;5122370;27;20185;-65
2021/10/30 03:20:08;;;;;;;8.10;6.38;;;6.00;89.00;;;;;;5113251;28;20633;-66
2021/10/30 03:22:36;;;;;;;14.70;6.95;;;6.00;90.10;;;;;;5128549;27;20184;-66
2021/10/30 03:25:04;;;;;;;8.07;6.20;;;6.00;90.10;;;;;;5133884;27;20555;-66
2021/10/30 03:27:31;;;;;;;7.55;6.00;;;6.00;90.00;;;;;;5118676;27;20238;-66
2021/10/30 03:29:58;;;;;;;19.55;7.05;;;6.00;90.20;;;;;;5126674;27;20194;-66
2021/10/30 03:32:26;;;;;;;8.35;5.82;;;5.90;89.30;;;;;;5133644;27;20199;-66
2021/10/30 03:34:53;;;;;;;9.45;5.65;;;5.80;90.10;;;;;;5120955;27;20208;-66
2021/10/30 03:37:20;;;;;;;16.38;6.30;;;5.90;90.20;;;;;;5112650;28;20284;-66
2021/10/30 03:39:49;;;;;;;11.57;6.05;;;5.90;88.50;;;;;;5123376;27;20622;-67
2021/10/30 03:42:16;;;;;;;8.57;5.78;;;5.70;88.90;;;;;;5133374;27;20199;-65
2021/10/30 03:44:43;;;;;;;8.38;6.85;;;5.60;89.50;;;;;;5123566;27;20197;-65
2021/10/30 03:47:10;;;;;;;11.90;5.20;;;5.70;88.30;;;;;;5117632;27;20207;-66
2021/10/30 03:49:37;;;;;;;11.88;5.07;;;5.60;87.90;;;;;;5132931;27;20219;-66
2021/10/30 03:52:05;;;;;;;6.68;5.97;;;5.60;88.40;;;;;;5115250;27;20659;-66
2021/10/30 03:54:32;;;;;;;15.07;6.28;;;5.50;87.80;;;;;;5127516;27;20662;-66
2021/10/30 03:57:01;;;;;;;8.15;5.72;;;5.40;88.20;;;;;;5133447;27;20196;-66
2021/10/30 03:59:28;;;;;;;9.20;5.40;;;5.40;88.40;;;;;;5118964;27;20209;-66
2021/10/30 04:01:55;;;;;;;8.13;5.50;;;5.50;88.20;;;;;;5112721;28;20200;-66
2021/10/30 04:04:23;;;;;;;7.57;5.95;;;5.40;88.10;;;;;;5125053;28;20180;-65
2021/10/30 04:06:50;;;;;;;8.02;6.25;;;5.40;88.30;;;;;;5133524;27;20246;-66
2021/10/30 04:09:18;;;;;;;12.02;5.60;;;5.40;88.60;;;;;;5122024;27;20205;-66
2021/10/30 04:11:46;;;;;;;9.77;5.28;;;5.40;88.50;;;;;;5112801;28;20717;-66
2021/10/30 04:14:15;;;;;;;15.95;5.38;;;5.40;88.60;;;;;;5122205;28;20608;-65
2021/10/30 04:16:42;;;;;;;7.07;5.93;;;5.30;89.20;;;;;;5133052;27;20550;-66
2021/10/30 04:19:09;;;;;;;7.40;5.15;;;5.30;90.00;;;;;;5120440;27;20189;-65
2021/10/30 04:21:36;;;;;;;6.53;5.55;;;5.20;89.90;;;;;;5112927;28;20217;-66
2021/10/30 04:24:03;;;;;;;7.40;5.13;;;5.20;89.80;;;;;;5124294;28;20196;-66
2021/10/30 04:26:31;;;;;;;7.63;5.15;;;5.30;90.10;;;;;;5128181;27;20595;-66
2021/10/30 04:28:58;;;;;;;6.88;5.47;;;5.30;90.10;;;;;;5111449;28;20245;-66
2021/10/30 04:31:29;;;;;;;5.70;4.80;;;5.30;90.20;;;;;;5112666;28;20185;-65
2021/10/30 04:33:59;;;;;;;11.63;6.35;;;5.40;90.00;;;;;;5121348;28;20188;-66
2021/10/30 04:36:28;;;;;;;10.23;7.38;;;5.40;90.00;;;;;;5132822;27;20184;-66
2021/10/30 04:38:56;;;;;;;8.75;5.43;;;5.40;89.60;;;;;;5123917;27;20196;-66
2021/10/30 04:41:24;;;;;;;12.80;6.80;;;5.40;88.90;;;;;;5112773;28;20303;-66
2021/10/30 04:43:52;;;;;;;10.18;6.35;;;5.30;87.90;;;;;;5119628;28;20188;-66
2021/10/30 04:46:22;;;;;;;7.40;5.70;;;5.30;87.50;;;;;;5133077;27;20192;-66
2021/10/30 04:48:51;;;;;;;7.03;5.65;;;5.30;88.10;;;;;;5126010;27;20177;-66
2021/10/30 04:51:18;;;;;;;12.25;5.95;;;5.30;88.60;;;;;;5115806;28;20236;-66
2021/10/30 04:53:46;;;;;;;12.10;6.65;;;5.30;88.90;;;;;;5117138;27;20250;-65
2021/10/30 04:56:13;;;;;;;6.57;4.95;;;5.30;88.40;;;;;;5116291;28;20204;-66
2021/10/30 04:58:43;;;;;;;7.57;5.43;;;5.20;87.10;;;;;;5120133;27;20546;-66
2021/10/30 05:01:11;;;;;;;10.48;5.63;;;5.20;87.20;;;;;;5136545;27;20216;-66
2021/10/30 05:03:38;;;;;;;6.00;5.40;;;5.10;86.40;;;;;;5133068;27;20183;-66
2021/10/30 05:06:07;;;;;;;8.98;5.60;;;5.10;86.30;;;;;;5116164;28;20219;-66
2021/10/30 05:08:34;;;;;;;5.25;4.75;;;5.10;85.50;;;;;;5117860;27;20192;-66
2021/10/30 05:11:02;;;;;;;25.52;7.68;;;5.00;84.70;;;;;;5136645;27;20218;-66
2021/10/30 05:13:29;;;;;;;26.70;6.15;;;4.90;84.60;;;;;;5135274;27;20283;-66
2021/10/30 05:15:56;;;;;;;7.85;4.60;;;4.90;83.90;;;;;;5115911;28;20243;-66
2021/10/30 05:18:23;;;;;;;17.20;5.90;;;4.80;84.10;;;;;;5115969;28;20204;-66
2021/10/30 05:20:50;;;;;;;51.72;8.07;;;4.70;85.80;;;;;;5115827;27;20220;-65
2021/10/30 05:23:19;;;;;;;11.55;5.72;;;4.70;84.00;;;;;;5115793;28;20574;-67
2021/10/30 05:25:46;;;;;;;9.13;5.80;;;4.50;85.10;;;;;;5134161;27;20180;-65
2021/10/30 05:28:20;;;;;;;6.45;4.35;;;4.50;86.20;;;;;;5136077;27;20184;-66
2021/10/30 05:30:48;;;;;;;6.22;4.20;;;4.40;85.90;;;;;;5117254;27;20195;-66
2021/10/30 05:33:15;;;;;;;6.78;4.60;;;4.40;85.60;;;;;;5115577;28;20207;-66
2021/10/30 05:35:42;;;;;;;7.78;4.80;;;4.30;85.20;;;;;;5116152;27;20185;-66
2021/10/30 05:38:10;;;;;;;7.03;5.82;;;4.30;85.60;;;;;;5127162;27;20184;-66
2021/10/30 05:40:40;;;;;;;11.98;5.47;;;4.20;85.10;;;;;;5135838;27;20216;-66
2021/10/30 05:43:07;;;;;;;15.77;5.95;;;4.20;85.10;;;;;;5124539;27;20196;-65
2021/10/30 05:45:35;;;;;;;8.77;4.97;;;4.20;85.20;;;;;;5115139;28;20197;-66
2021/10/30 05:48:05;;;;;;;14.07;5.20;;;4.10;84.80;;;;;;5116100;27;20568;-66
2021/10/30 05:50:33;;;;;;;5.82;4.50;;;4.00;85.00;;;;;;5125454;27;20303;-66
2021/10/30 05:53:00;;;;;;;4.93;4.10;;;4.00;85.00;;;;;;5126724;27;20542;-66
2021/10/30 05:55:27;;;;;;;7.50;4.50;;;3.90;85.10;;;;;;5115242;28;20224;-66
2021/10/30 05:57:56;;;;;;;7.63;5.45;;;3.90;84.90;;;;;;5116000;27;20242;-67
2021/10/30 06:00:24;;;;;;;7.15;5.07;;;3.90;85.50;;;;;;5114603;28;20683;-66
2021/10/30 06:02:51;;;;;;;7.32;6.60;;;3.90;85.60;;;;;;5120697;27;20206;-66
2021/10/30 06:05:18;;;;;;;8.75;5.40;;;4.00;85.70;;;;;;5135617;27;20200;-66
2021/10/30 06:07:45;;;;;;;8.82;6.45;;;4.00;85.60;;;;;;5130452;27;20192;-65
2021/10/30 06:10:12;;;;;;;10.52;5.20;;;4.00;85.40;;;;;;5114866;28;20239;-66
2021/10/30 06:12:40;;;;;;;7.07;6.28;;;3.90;84.30;;;;;;5117348;27;20181;-66
2021/10/30 06:15:10;;;;;;;15.55;7.75;;;3.90;84.20;;;;;;5135312;27;20242;-65
2021/10/30 06:17:37;;;;;;;9.57;6.60;;;3.90;85.00;;;;;;5123487;27;20258;-65
2021/10/30 06:20:05;;;;;;;8.15;5.20;;;4.00;85.70;;;;;;5114527;28;20195;-66
2021/10/30 06:22:32;;;;;;;8.98;7.10;;;4.00;86.30;;;;;;5120142;27;20646;-66
2021/10/30 06:24:59;;;;;;;8.93;6.05;;;4.00;86.10;;;;;;5120874;27;20643;-66
2021/10/30 06:27:26;;;;;;;9.82;6.43;;;4.00;85.90;;;;;;5114694;28;20640;-66
2021/10/30 06:29:53;;;;;;;10.35;6.10;;;4.00;85.60;;;;;;5121805;27;20188;-66
2021/10/30 06:32:22;;;;;;;12.73;8.20;;;4.00;85.10;;;;;;5135260;27;20587;-66
2021/10/30 06:34:49;;;;;;;16.27;8.52;;;4.00;84.50;;;;;;5128493;27;20181;-66
2021/10/30 06:37:16;;;;;;;11.25;9.45;;;4.10;85.60;;;;;;5114546;28;20259;-65
2021/10/30 06:39:43;;;;;;;13.13;9.00;;;4.10;85.30;;;;;;5118952;27;20604;-65
2021/10/30 06:42:10;;;;;;;11.88;8.05;;;4.20;85.70;;;;;;5134705;27;20220;-66
2021/10/30 06:44:37;;;;;;;15.07;8.88;;;4.30;85.10;;;;;;5131433;27;20596;-66
2021/10/30 06:47:05;;;;;;;16.48;8.70;;;4.40;83.80;;;;;;5114533;27;20200;-66
2021/10/30 06:49:33;;;;;;;8.18;6.68;;;4.40;83.00;;;;;;5114252;27;20189;-66
2021/10/30 06:52:00;;;;;;;10.90;7.30;;;4.40;82.60;;;;;;5114223;28;20554;-67
2021/10/30 06:54:27;;;;;;;11.10;8.75;;;4.50;82.30;;;;;;5114178;28;20189;-66
2021/10/30 06:56:55;;;;;;;10.80;7.85;;;4.60;83.30;;;;;;5113865;28;20233;-65
2021/10/30 06:59:22;;;;;;;11.45;8.32;;;4.90;84.60;;;;;;5132492;27;20184;-66
2021/10/30 07:01:49;;;;;;;8.77;7.72;;;5.20;83.20;;;;;;5133479;27;20215;-66
2021/10/30 07:04:17;;;;;;;7.90;6.47;;;5.50;82.30;;;;;;5113680;27;20193;-66
2021/10/30 07:06:45;;;;;;;10.68;6.43;;;6.00;81.30;;;;;;5113821;28;20193;-66
2021/10/30 07:09:12;;;;;;;9.07;7.18;;;6.50;78.90;;;;;;5114571;27;20662;-66
2021/10/30 07:11:44;;;;;;;9.73;8.35;;;7.00;78.40;;;;;;5112905;28;20235;-68
2021/10/30 07:14:11;;;;;;;9.07;8.18;;;7.50;77.80;;;;;;5099788;27;20185;-67
2021/10/30 07:16:38;;;;;;;10.00;8.10;;;8.00;73.50;;;;;;5092780;28;20217;-67
2021/10/30 07:19:05;;;;;;;8.25;7.25;;;8.50;73.00;;;;;;5110323;27;20220;-67
2021/10/30 07:21:32;;;;;;;6.70;5.93;;;8.90;70.50;;;;;;5110654;28;20724;-67
2021/10/30 07:24:02;;;;;;;6.60;5.90;;;9.40;68.70;;;;;;5111087;27;20550;-67
2021/10/30 07:26:33;;;;;;;6.75;6.10;;;9.90;63.60;;;;;;5110728;28;20208;-67
2021/10/30 07:29:00;;;;;;;5.15;4.65;;;10.30;61.20;;;;;;5100568;27;20570;-66
2021/10/30 07:31:28;;;;;;;6.50;5.80;;;10.60;60.00;;;;;;5110395;28;20185;-67
2021/10/30 07:33:55;;;;;;;6.50;4.75;;;11.10;59.40;;;;;;5106972;27;20275;-67
2021/10/30 07:36:23;;;;;;;5.40;4.80;;;11.40;57.70;;;;;;5110805;28;20189;-66
2021/10/30 07:38:50;;;;;;;7.00;6.40;;;11.80;56.30;;;;;;5098049;28;20189;-67
2021/10/30 07:41:19;;;;;;;6.43;5.82;;;12.20;55.50;;;;;;5106100;28;20224;-67
2021/10/30 07:43:47;;;;;;;8.55;6.22;;;12.60;53.90;;;;;;5100802;27;20248;-67
2021/10/30 07:46:15;;;;;;;6.93;5.80;;;13.00;53.50;;;;;;5092531;28;20189;-66
2021/10/30 07:48:42;;;;;;;6.85;5.32;;;13.30;52.50;;;;;;5097420;28;20740;-67
2021/10/30 07:51:09;;;;;;;7.10;6.13;;;13.80;51.10;;;;;;5092363;28;20229;-66
2021/10/30 07:53:36;;;;;;;5.20;4.70;;;14.00;47.40;;;;;;5099104;27;20194;-67
2021/10/30 07:56:04;;;;;;;5.95;5.32;;;14.30;47.80;;;;;;5092634;28;20197;-66
2021/10/30 07:58:33;;;;;;;6.82;5.82;;;14.70;47.90;;;;;;5101619;28;20189;-67
2021/10/30 08:01:00;;;;;;;7.70;6.70;;;15.20;46.20;;;;;;5110321;28;20755;-67
2021/10/30 08:03:27;;;;;;;12.15;7.68;;;15.70;47.60;;;;;;5103270;28;20190;-67
2021/10/30 08:05:55;;;;;;;7.18;6.20;;;16.40;46.50;;;;;;5092406;28;20247;-68
2021/10/30 08:08:22;;;;;;;6.35;5.53;;;17.00;44.10;;;;;;5103837;28;20253;-67
2021/10/30 08:10:49;;;;;;;6.43;5.47;;;17.70;42.80;;;;;;5111834;28;20180;-67
2021/10/30 08:13:17;;;;;;;5.78;5.20;;;18.40;41.10;;;;;;5101239;28;20185;-67
2021/10/30 08:15:45;;;;;;;4.50;3.93;;;18.80;38.90;;;;;;5092280;28;20570;-67
2021/10/30 08:18:12;;;;;;;5.90;5.30;;;19.00;38.00;;;;;;5099558;28;20431;-67
2021/10/30 08:20:39;;;;;;;5.90;5.30;;;19.40;37.20;;;;;;5092012;28;20447;-67
2021/10/30 08:23:06;;;;;;;9.90;5.50;;;19.70;36.90;;;;;;5092668;28;20443;-67
2021/10/30 08:25:34;;;;;;;5.17;4.57;;;19.90;36.00;;;;;;5096006;28;20446;-68
2021/10/30 08:28:01;;;;;;;6.90;5.60;;;20.60;35.70;;;;;;5110709;28;20430;-67
2021/10/30 08:30:29;;;;;;;6.93;5.80;;;21.50;36.00;;;;;;5114851;28;20649;-67
2021/10/30 08:32:57;;;;;;;5.43;4.93;;;22.60;34.20;;;;;;5103374;27;20797;-69
2021/10/30 08:35:24;;;;;;;7.07;5.53;;;23.80;31.80;;;;;;5114052;27;20466;-69
2021/10/30 08:37:51;;;;;;;10.20;7.03;;;24.80;30.00;;;;;;5098457;27;20434;-67
2021/10/30 08:40:19;;;;;;;7.77;6.43;;;25.30;29.50;;;;;;5106895;28;20445;-67
2021/10/30 08:42:48;;;;;;;8.10;6.10;;;26.30;27.90;;;;;;5109676;27;20555;-67
2021/10/30 08:45:16;;;;;;;10.83;5.13;;;26.70;27.00;;;;;;5113408;28;20517;-67
2021/10/30 08:47:45;;;;;;;7.80;6.07;;;27.10;26.90;;;;;;5113671;28;20529;-67
2021/10/30 08:50:14;;;;;;;10.00;6.23;;;28.10;26.20;;;;;;5113730;28;20474;-67
2021/10/30 08:52:41;;;;;;;5.90;5.30;;;29.10;25.90;;;;;;5101411;27;20471;-68
2021/10/30 08:55:10;;;;;;;8.23;5.83;;;30.00;24.50;;;;;;5095561;28;20431;-68
2021/10/30 08:57:38;;;;;;;5.80;5.07;;;30.90;23.50;;;;;;5101873;27;20443;-67
2021/10/30 09:00:18;;;;;;;6.73;5.93;;;31.50;22.40;;;;;;5101601;27;20486;-68
2021/10/30 09:02:46;;;;;;;7.40;5.07;;;32.30;22.20;;;;;;5106460;27;20518;-67
2021/10/30 09:05:17;;;;;;;4.97;4.47;;;32.50;21.50;;;;;;5102446;27;20939;-68
2021/10/30 09:07:45;;;;;;;4.80;4.30;;;33.00;20.80;;;;;;5101227;27;20450;-68
2021/10/30 09:10:15;;;;;;;4.77;4.13;;;33.70;19.70;;;;;;5113416;28;20438;-68
2021/10/30 09:12:51;;;;;;;6.07;5.00;;;34.00;18.90;;;;;;5112986;27;20443;-68
2021/10/30 09:15:20;;;;;;;6.17;5.43;;;34.20;18.50;;;;;;5109709;28;20865;-68
2021/10/30 09:17:49;;;;;;;4.67;4.27;;;34.90;19.10;;;;;;5112965;27;20721;-68
2021/10/30 09:20:18;;;;;;;5.90;5.07;;;35.80;18.70;;;;;;5102124;27;20492;-69
2021/10/30 09:22:56;;;;;;;6.63;5.87;;;36.60;17.20;;;;;;5111436;27;20479;-67
2021/10/30 09:25:23;;;;;;;6.00;5.40;;;37.20;17.40;;;;;;5108848;27;20438;-66
2021/10/30 09:27:54;;;;;;;7.67;5.07;;;37.90;16.70;;;;;;5095044;27;20432;-66
2021/10/30 09:30:24;;;;;;;5.73;5.00;;;38.70;16.00;;;;;;5116502;27;20518;-66
2021/10/30 09:32:59;;;;;;;6.97;6.37;;;39.30;16.10;;;;;;5094811;28;20447;-66
2021/10/30 09:35:31;;;;;;;7.97;6.67;;;40.10;15.80;;;;;;5100539;27;20495;-66
2021/10/30 09:37:59;;;;;;;6.50;5.67;;;40.80;15.30;;;;;;5111604;27;20432;-67
2021/10/30 09:40:28;;;;;;;8.90;6.00;;;41.50;14.90;;;;;;5099826;27;20760;-69
2021/10/30 09:43:10;;;;;;;5.67;4.83;;;42.10;14.40;;;;;;5104828;27;20900;-67
2021/10/30 09:45:46;;;;;;;5.97;5.47;;;42.80;13.80;;;;;;5114269;27;20470;-67
2021/10/30 09:48:16;;;;;;;5.87;5.33;;;43.40;13.30;;;;;;5105822;27;20450;-66
2021/10/30 09:50:45;;;;;;;6.53;5.93;;;43.50;13.50;;;;;;5094930;27;20459;-66
2021/10/30 09:53:28;;;;;;;7.30;6.70;;;43.80;13.20;;;;;;5103337;27;20922;-67
2021/10/30 09:56:02;;;;;;;6.03;5.43;;;44.00;13.20;;;;;;5112197;28;20430;-66
2021/10/30 09:58:38;;;;;;;5.70;5.20;;;44.30;13.40;;;;;;5098366;27;20495;-68
2021/10/30 10:01:09;;;;;;;6.40;5.83;;;44.70;13.00;;;;;;5100339;27;20470;-67
2021/10/30 10:03:38;;;;;;;5.87;5.30;;;44.60;12.40;;;;;;5103474;27;20445;-67
2021/10/30 10:06:09;;;;;;;6.17;5.57;;;44.10;12.90;;;;;;5093953;28;20431;-66
2021/10/30 10:08:41;;;;;;;5.37;4.90;;;43.20;13.10;;;;;;5098450;27;20502;-66
2021/10/30 10:11:11;;;;;;;6.93;5.20;;;42.20;13.40;;;;;;5096500;27;20511;-66
2021/10/30 10:13:42;;;;;;;6.23;5.63;;;41.20;14.20;;;;;;5103080;27;20519;-66
2021/10/30 10:16:14;;;;;;;7.90;5.43;;;40.00;14.40;;;;;;5110067;27;20443;-67
2021/10/30 10:18:48;;;;;;;5.90;5.30;;;38.40;15.60;;;;;;5112027;27;20437;-66
2021/10/30 10:21:21;;;;;;;5.70;5.20;;;37.30;16.50;;;;;;5105866;27;20437;-66
2021/10/30 10:23:54;;;;;;;5.30;4.80;;;37.00;17.00;;;;;;5098216;27;20443;-65
2021/10/30 10:26:31;;;;;;;6.63;5.40;;;36.40;18.30;;;;;;5111019;27;21286;-66
2021/10/30 10:29:04;;;;;;;6.20;5.00;;;36.30;18.80;;;;;;5107632;28;20442;-66
2021/10/30 10:31:32;;;;;;;7.13;6.30;;;36.50;19.00;;;;;;5111422;27;20442;-66
2021/10/30 10:34:10;;;;;;;5.83;5.23;;;36.70;17.70;;;;;;5111526;27;20972;-66
2021/10/30 10:36:41;;;;;;;6.60;5.13;;;36.60;18.10;;;;;;5105767;27;20435;-66
2021/10/30 10:39:30;;;;;;;5.60;4.60;;;37.00;18.80;;;;;;5111226;27;20483;-67
2021/10/30 10:42:03;;;;;;;7.23;4.83;;;37.50;17.80;;;;;;5112003;27;20477;-67
2021/10/30 10:45:01;;;;;;;10.40;5.70;;;37.70;18.10;;;;;;5109004;27;20434;-66
2021/10/30 10:47:56;;;;;;;4.90;4.40;;;38.50;17.70;;;;;;5111766;27;20439;-67
2021/10/30 10:50:29;;;;;;;5.50;5.00;;;39.00;17.30;;;;;;5112108;27;20557;-67
2021/10/30 10:53:18;;;;;;;5.80;5.30;;;40.10;17.30;;;;;;5113966;27;20842;-67
2021/10/30 10:56:14;;;;;;;5.00;4.60;;;40.60;16.10;;;;;;5107519;27;20471;-67
2021/10/30 10:59:15;;;;;;;5.10;4.67;;;40.10;15.70;;;;;;5106146;27;20540;-68
2021/10/30 11:02:12;;;;;;;6.27;4.10;;;39.50;16.00;;;;;;5110789;27;20467;-67
2021/10/30 11:04:39;;;;;;;6.10;4.73;;;39.40;16.70;;;;;;5106760;28;20445;-68
2021/10/30 11:07:14;;;;;;;4.60;4.10;;;39.60;16.00;;;;;;5109102;27;20515;-67
2021/10/30 11:10:05;;;;;;;7.43;5.03;;;39.10;14.20;;;;;;5103641;27;20442;-67
2021/10/30 11:12:32;;;;;;;6.63;4.53;;;38.10;16.40;;;;;;5105716;27;20976;-66
2021/10/30 11:15:09;;;;;;;4.87;4.10;;;37.50;17.90;;;;;;5109427;27;20521;-68
2021/10/30 11:17:52;;;;;;;4.97;4.40;;;37.50;17.90;;;;;;5100468;27;20541;-67
2021/10/30 11:20:20;;;;;;;4.27;3.83;;;36.90;17.40;;;;;;5092076;28;20451;-66
2021/10/30 11:23:04;;;;;;;3.83;3.43;;;35.80;18.10;;;;;;5101577;28;20569;-68
2021/10/30 11:25:34;;;;;;;7.57;4.27;;;34.50;19.10;;;;;;5110406;27;20439;-66
2021/10/30 11:28:04;;;;;;;3.50;3.20;;;33.50;20.60;;;;;;5107382;27;20446;-66
2021/10/30 11:30:36;;;;;;;4.10;3.37;;;33.10;21.40;;;;;;5109263;27;20439;-66
2021/10/30 11:33:23;;;;;;;4.17;3.77;;;33.00;22.40;;;;;;5116974;27;20521;-66
2021/10/30 11:36:01;;;;;;;6.40;4.67;;;33.70;21.20;;;;;;5104964;27;20446;-66
2021/10/30 11:38:33;;;;;;;6.90;5.40;;;33.40;19.90;;;;;;5108679;27;20480;-66
2021/10/30 11:41:05;;;;;;;5.03;3.77;;;32.60;20.80;;;;;;5112406;27;20528;-68
2021/10/30 11:43:33;;;;;;;4.83;4.13;;;31.40;22.40;;;;;;5109972;27;20494;-66
2021/10/30 11:46:01;;;;;;;4.20;3.50;;;30.30;23.70;;;;;;5106559;27;20438;-66
2021/10/30 11:48:39;;;;;;;6.47;4.40;;;29.20;24.60;;;;;;5114665;27;20457;-66
2021/10/30 11:51:08;;;;;;;5.97;3.87;;;28.20;25.80;;;;;;5105902;27;20465;-67
2021/10/30 11:53:36;;;;;;;3.80;3.50;;;27.40;25.80;;;;;;5115871;27;20489;-67
2021/10/30 11:56:09;;;;;;;3.80;3.30;;;26.70;26.70;;;;;;5103510;27;20467;-67
2021/10/30 11:58:41;;;;;;;5.50;3.93;;;26.20;27.80;;;;;;5091625;28;20431;-67
2021/10/30 12:01:28;;;;;;;3.60;3.20;;;25.80;28.30;;;;;;5100355;28;20446;-67
2021/10/30 12:03:58;;;;;;;5.10;2.90;;;25.60;29.20;;;;;;5102643;27;20987;-68
2021/10/30 12:06:26;;;;;;;8.10;2.90;;;25.90;29.70;;;;;;5107235;27;20491;-68
2021/10/30 12:08:56;;;;;;;10.13;3.53;;;26.10;28.80;;;;;;5110241;28;20522;-67
2021/10/30 12:11:24;;;;;;;3.50;3.07;;;25.80;28.70;;;;;;5110782;28;20839;-67
2021/10/30 12:13:54;;;;;;;3.63;3.30;;;25.50;28.50;;;;;;5110213;28;20491;-68
2021/10/30 12:16:22;;;;;;;5.80;3.37;;;25.00;28.80;;;;;;5106767;28;20431;-67
2021/10/30 12:19:00;;;;;;;3.73;3.23;;;24.40;29.10;;;;;;5110332;28;20538;-67
2021/10/30 12:21:32;;;;;;;4.40;3.70;;;24.00;29.40;;;;;;5109898;28;20446;-67
2021/10/30 12:24:04;;;;;;;4.90;3.97;;;23.60;29.50;;;;;;5110518;28;20573;-68
2021/10/30 12:26:55;;;;;;;4.70;4.13;;;23.30;30.50;;;;;;5110130;28;20427;-68
2021/10/30 12:29:24;;;;;;;4.87;4.20;;;24.00;31.30;;;;;;5109811;28;20434;-67
2021/10/30 12:32:05;;;;;;;6.70;4.10;;;24.40;29.80;;;;;;5106288;28;20453;-68
2021/10/30 12:34:34;;;;;;;3.67;3.30;;;24.00;29.60;;;;;;5110162;28;20533;-67
2021/10/30 12:37:06;;;;;;;5.03;4.53;;;23.50;30.00;;;;;;5110051;28;20463;-67
2021/10/30 12:39:33;;;;;;;5.60;4.70;;;23.10;30.80;;;;;;5110468;28;20467;-68
2021/10/30 12:42:04;;;;;;;7.70;4.67;;;22.60;31.80;;;;;;5109825;28;20509;-67
2021/10/30 12:44:33;;;;;;;5.37;4.50;;;22.20;32.40;;;;;;5096579;28;20526;-67
2021/10/30 12:47:02;;;;;;;6.20;5.43;;;21.80;33.50;;;;;;5091666;28;20535;-67
2021/10/30 12:49:34;;;;;;;5.80;4.70;;;21.40;33.90;;;;;;5091966;28;20539;-67
2021/10/30 12:54:53;;;;;;;6.47;5.83;;;20.60;35.50;;;;;;5091819;28;20440;-67
2021/10/30 12:57:23;;;;;;;9.60;6.97;;;20.30;36.60;;;;;;5092094;28;20564;-67
2021/10/30 13:00:00;;;;;;;7.83;6.20;;;20.00;37.90;;;;;;5092149;28;20456;-66
2021/10/30 13:02:29;;;;;;;5.90;5.03;;;19.80;38.00;;;;;;5106533;28;21035;-67